Time;durP1;ratioP1;P1;durP2;ratioP2;P2;SDS_P1;SDS_P2;PMS_P1;PMS_P2;Temp;Humidity;BMP_temperature;BMP_pressure;BME280_temperature;BME280_humidity;BME280_pressure;Samples;Min_cycle;Max_cycle;Signal;HPM_P1;HPM_P2
2023/11/19 00:05:28;;;;;;;;;;;;;;;10.51;100.00;100537.75;6196994;22;19928;-79
2023/11/19 00:07:54;;;;;;;;;;;;;;;10.54;100.00;100521.19;6186374;23;19936;-78
2023/11/19 00:10:25;;;;;;;;;;;;;;;10.64;100.00;100512.72;6186822;23;19958;-79
2023/11/19 00:13:10;;;;;;;;;;;;;;;10.65;100.00;100508.97;6185811;23;19912;-79
2023/11/19 00:15:35;;;;;;;;;;;;;;;10.68;100.00;100522.84;6173680;23;19912;-78
2023/11/19 00:18:04;;;;;;;;;;;;;;;10.73;100.00;100509.59;6187237;23;19983;-79
2023/11/19 00:20:45;;;;;;;;;;;;;;;10.74;100.00;100511.28;6188514;23;20376;-78
2023/11/19 00:26:06;;;;;;;;;;;;;;;10.74;100.00;100494.28;6167865;23;19913;-79
2023/11/19 00:28:31;;;;;;;;;;;;;;;10.82;100.00;100502.16;6194850;23;19920;-79
2023/11/19 00:31:27;;;;;;;;;;;;;;;10.88;100.00;100505.88;6204430;23;20767;-79
2023/11/19 00:33:55;;;;;;;;;;;;;;;10.91;100.00;100489.31;6189911;23;19916;-79
2023/11/19 00:36:38;;;;;;;;;;;;;;;10.95;100.00;100478.94;6195883;23;19913;-79
2023/11/19 00:39:03;;;;;;;;;;;;;;;11.01;100.00;100478.13;6186039;23;19916;-79
2023/11/19 00:41:29;;;;;;;;;;;;;;;11.03;100.00;100487.63;6174146;23;19927;-78
2023/11/19 00:43:54;;;;;;;;;;;;;;;11.03;100.00;100482.25;6206295;23;19916;-79
2023/11/19 00:46:19;;;;;;;;;;;;;;;11.09;100.00;100471.69;6200412;23;19993;-78
2023/11/19 00:48:47;;;;;;;;;;;;;;;11.03;100.00;100471.47;6189442;23;19916;-78
2023/11/19 00:51:12;;;;;;;;;;;;;;;11.03;100.00;100482.25;6186647;23;20218;-78
2023/11/19 00:53:37;;;;;;;;;;;;;;;11.14;100.00;100479.94;6159560;23;19919;-78
2023/11/19 00:56:03;;;;;;;;;;;;;;;11.16;100.00;100488.66;6201926;23;19935;-78
2023/11/19 00:58:29;;;;;;;;;;;;;;;11.10;100.00;100487.63;6206953;23;19912;-78
2023/11/19 01:00:54;;;;;;;;;;;;;;;11.16;100.00;100485.94;6189172;23;19920;-78
2023/11/19 01:03:19;;;;;;;;;;;;;;;11.13;100.00;100475.59;6186397;23;19920;-78
2023/11/19 01:05:46;;;;;;;;;;;;;;;11.17;100.00;100468.75;6211395;23;19930;-78
2023/11/19 01:08:12;;;;;;;;;;;;;;;11.22;100.00;100461.69;6215759;23;19943;-78
2023/11/19 01:10:37;;;;;;;;;;;;;;;11.28;100.00;100467.28;6214484;23;20264;-78
2023/11/19 01:13:05;;;;;;;;;;;;;;;11.32;100.00;100455.84;6216274;23;19919;-78
2023/11/19 01:15:30;;;;;;;;;;;;;;;11.35;100.00;100450.06;6215441;23;19986;-78
2023/11/19 01:17:55;;;;;;;;;;;;;;;11.40;100.00;100444.00;6214006;23;20345;-78
2023/11/19 01:20:21;;;;;;;;;;;;;;;11.44;100.00;100449.81;6188619;23;20387;-77
2023/11/19 01:22:48;;;;;;;;;;;;;;;11.48;100.00;100432.16;6214837;23;19916;-81
2023/11/19 01:25:13;;;;;;;;;;;;;;;11.47;100.00;100423.25;6213476;23;19916;-79
2023/11/19 01:36:28;;;;;;;;;;;;;;;11.34;100.00;100431.41;6039152;23;19918;-79
2023/11/19 01:39:23;;;;;;;;;;;;;;;11.48;100.00;100437.56;6174568;23;19919;-79
2023/11/19 01:41:49;;;;;;;;;;;;;;;11.43;100.00;100437.38;6184915;23;19975;-79
2023/11/19 01:44:29;;;;;;;;;;;;;;;11.39;100.00;100428.88;6184933;23;19920;-78
2023/11/19 01:47:01;;;;;;;;;;;;;;;11.40;100.00;100424.34;6184058;23;19913;-79
2023/11/19 01:49:26;;;;;;;;;;;;;;;11.45;100.00;100435.31;6186242;23;20310;-79
2023/11/19 01:51:52;;;;;;;;;;;;;;;11.45;100.00;100446.09;6185802;23;19954;-78
2023/11/19 01:54:20;;;;;;;;;;;;;;;11.44;100.00;100439.03;6158239;23;19931;-78
2023/11/19 01:56:45;;;;;;;;;;;;;;;11.49;100.00;100437.38;6187867;23;19967;-78
2023/11/19 01:59:11;;;;;;;;;;;;;;;11.49;100.00;100431.13;6190400;23;19916;-78
2023/11/19 02:01:39;;;;;;;;;;;;;;;11.57;100.00;100416.56;6185785;23;19912;-78
2023/11/19 02:04:05;;;;;;;;;;;;;;;11.55;100.00;100424.88;6185873;23;19923;-79
2023/11/19 02:06:30;;;;;;;;;;;;;;;11.56;100.00;100406.88;6186068;23;19908;-79
2023/11/19 02:08:55;;;;;;;;;;;;;;;11.48;100.00;100424.06;6156866;23;19912;-79
2023/11/19 02:11:20;;;;;;;;;;;;;;;11.47;100.00;100411.66;6185429;23;20023;-79
2023/11/19 02:13:45;;;;;;;;;;;;;;;11.55;100.00;100413.28;6186096;23;19916;-78
2023/11/19 02:16:11;;;;;;;;;;;;;;;11.49;100.00;100414.94;6184818;23;19927;-79
2023/11/19 02:18:36;;;;;;;;;;;;;;;11.51;100.00;100410.19;6157684;23;19916;-79
2023/11/19 02:21:01;;;;;;;;;;;;;;;11.51;100.00;100416.41;6184646;23;19919;-78
2023/11/19 02:23:27;;;;;;;;;;;;;;;11.59;100.00;100420.72;6183998;23;19924;-79
2023/11/19 02:26:11;;;;;;;;;;;;;;;11.60;100.00;100398.13;6183663;23;19926;-79
2023/11/19 02:28:36;;;;;;;;;;;;;;;11.60;100.00;100414.31;6185326;23;19935;-78
2023/11/19 02:31:04;;;;;;;;;;;;;;;11.53;100.00;100408.94;6189502;23;19938;-78
2023/11/19 02:33:30;;;;;;;;;;;;;;;11.55;100.00;100408.72;6203486;23;19919;-78
2023/11/19 02:35:56;;;;;;;;;;;;;;;11.55;100.00;100405.22;6218223;23;19916;-79
2023/11/19 02:38:21;;;;;;;;;;;;;;;11.58;100.00;100385.88;6217261;23;19958;-78
2023/11/19 02:40:47;;;;;;;;;;;;;;;11.62;100.00;100390.66;6210432;22;19990;-78
2023/11/19 02:43:13;;;;;;;;;;;;;;;11.60;100.00;100399.97;6188382;23;19916;-78
2023/11/19 02:45:38;;;;;;;;;;;;;;;11.56;100.00;100388.81;6176476;22;19912;-78
2023/11/19 02:48:06;;;;;;;;;;;;;;;11.58;100.00;100392.13;6194557;23;19918;-82
2023/11/19 02:51:01;;;;;;;;;;;;;;;11.55;100.00;100392.53;6203155;23;19920;-83
2023/11/19 03:05:55;;;;;;;;;;;;;;;11.56;100.00;100404.97;6186562;23;19963;-78
2023/11/19 03:08:33;;;;;;;;;;;;;;;11.52;100.00;100403.75;6186639;23;19936;-77
2023/11/19 03:11:06;;;;;;;;;;;;;;;11.50;100.00;100409.38;6186991;23;19916;-77
2023/11/19 03:13:32;;;;;;;;;;;;;;;11.53;100.00;100405.41;6162196;23;20360;-77
2023/11/19 03:16:21;;;;;;;;;;;;;;;;;;;;;
2023/11/19 03:18:50;;;;;;;;;;;;;;;11.48;100.00;100397.13;6174530;23;20007;-77
2023/11/19 03:21:31;;;;;;;;;;;;;;;11.51;100.00;100402.09;6186505;23;19909;-78
2023/11/19 03:23:56;;;;;;;;;;;;;;;11.47;100.00;100400.88;6185601;23;20292;-78
2023/11/19 03:26:22;;;;;;;;;;;;;;;11.55;100.00;100406.03;6185381;23;19912;-77
2023/11/19 03:28:47;;;;;;;;;;;;;;;11.57;100.00;100422.81;6187007;23;20320;-77
2023/11/19 03:31:12;;;;;;;;;;;;;;;11.57;100.00;100408.50;6184885;23;19912;-78
2023/11/19 03:33:38;;;;;;;;;;;;;;;11.52;100.00;100407.28;6184707;23;19991;-77
2023/11/19 03:36:03;;;;;;;;;;;;;;;11.57;100.00;100412.03;6185568;23;19979;-78
2023/11/19 03:38:28;;;;;;;;;;;;;;;11.54;100.00;100417.84;6185491;23;19919;-77
2023/11/19 03:40:53;;;;;;;;;;;;;;;11.58;100.00;100416.38;6186967;23;19912;-78
2023/11/19 03:43:19;;;;;;;;;;;;;;;11.56;100.00;100425.72;6188837;23;19913;-78
2023/11/19 03:45:44;;;;;;;;;;;;;;;11.54;100.00;100417.84;6185726;23;19912;-78
2023/11/19 03:48:09;;;;;;;;;;;;;;;11.52;100.00;100425.31;6186472;23;19936;-78
2023/11/19 03:50:35;;;;;;;;;;;;;;;11.50;100.00;100411.22;6186068;23;20020;-78
2023/11/19 03:53:00;;;;;;;;;;;;;;;11.50;100.00;100416.63;6183639;23;19917;-77
2023/11/19 03:55:25;;;;;;;;;;;;;;;11.46;100.00;100423.50;6185354;23;19916;-77
2023/11/19 03:57:50;;;;;;;;;;;;;;;11.46;100.00;100415.41;6186768;23;19918;-79
2023/11/19 04:00:16;;;;;;;;;;;;;;;11.42;100.00;100416.88;6185481;23;19939;-78
2023/11/19 04:02:41;;;;;;;;;;;;;;;11.37;100.00;100420.22;6185599;23;19916;-78
2023/11/19 04:05:06;;;;;;;;;;;;;;;11.32;100.00;100411.94;6186486;23;19969;-78
2023/11/19 04:07:32;;;;;;;;;;;;;;;11.34;100.00;100410.66;6185699;23;19995;-79
2023/11/19 04:09:57;;;;;;;;;;;;;;;11.28;100.00;100416.06;6187404;23;19912;-78
2023/11/19 04:12:22;;;;;;;;;;;;;;;11.29;100.00;100409.66;6188329;23;19912;-79
2023/11/19 04:14:51;;;;;;;;;;;;;;;11.30;100.00;100417.50;6185733;23;19916;-78
2023/11/19 04:17:16;;;;;;;;;;;;;;;11.29;100.00;100413.19;6187126;23;19912;-78
2023/11/19 04:19:41;;;;;;;;;;;;;;;11.28;100.00;100408.84;6188877;23;19958;-78
2023/11/19 04:22:09;;;;;;;;;;;;;;;11.23;100.00;100403.25;6188634;23;19912;-78
2023/11/19 04:24:35;;;;;;;;;;;;;;;11.20;100.00;100406.38;6189049;23;19912;-78
2023/11/19 04:27:00;;;;;;;;;;;;;;;11.10;100.00;100408.69;6199458;23;19923;-78
2023/11/19 04:29:28;;;;;;;;;;;;;;;11.03;100.00;100412.22;6192472;23;19912;-78
2023/11/19 04:31:53;;;;;;;;;;;;;;;10.95;100.00;100408.91;6190302;23;19912;-78
2023/11/19 04:34:21;;;;;;;;;;;;;;;10.79;100.00;100419.09;6188104;23;19912;-78
2023/11/19 04:36:46;;;;;;;;;;;;;;;10.77;100.00;100424.66;6186391;23;20333;-78
2023/11/19 04:39:13;;;;;;;;;;;;;;;10.69;100.00;100427.59;6186662;23;19920;-78
2023/11/19 04:41:45;;;;;;;;;;;;;;;10.54;100.00;100429.69;6185965;23;19912;-78
2023/11/19 04:44:10;;;;;;;;;;;;;;;10.49;100.00;100427.63;6186264;23;19944;-78
2023/11/19 04:46:36;;;;;;;;;;;;;;;10.51;100.00;100427.38;6185289;23;19924;-78
2023/11/19 04:49:01;;;;;;;;;;;;;;;10.47;100.00;100432.38;6184788;23;19916;-78
2023/11/19 04:51:26;;;;;;;;;;;;;;;10.46;100.00;100428.03;6184650;23;19916;-78
2023/11/19 04:53:51;;;;;;;;;;;;;;;10.46;100.00;100439.59;6184139;23;19920;-78
2023/11/19 04:56:19;;;;;;;;;;;;;;;10.44;100.00;100435.47;6187876;23;19908;-78
2023/11/19 04:58:44;;;;;;;;;;;;;;;10.36;100.00;100432.94;6188923;23;19916;-78
2023/11/19 05:01:13;;;;;;;;;;;;;;;10.30;100.00;100440.81;6187232;23;19959;-78
2023/11/19 05:03:38;;;;;;;;;;;;;;;10.39;100.00;100438.78;6184314;23;19917;-79
2023/11/19 05:06:04;;;;;;;;;;;;;;;10.42;100.00;100430.28;6185005;23;20253;-78
2023/11/19 05:08:29;;;;;;;;;;;;;;;10.31;100.00;100436.25;6185170;23;19913;-78
2023/11/19 05:10:54;;;;;;;;;;;;;;;10.26;100.00;100434.19;6184490;23;19916;-78
2023/11/19 05:13:19;;;;;;;;;;;;;;;10.23;100.00;100433.78;6185833;23;19927;-78
2023/11/19 05:15:45;;;;;;;;;;;;;;;10.25;100.00;100434.38;6184957;23;19942;-78
2023/11/19 05:18:13;;;;;;;;;;;;;;;10.37;100.00;100434.59;6185364;23;19912;-79
2023/11/19 05:20:38;;;;;;;;;;;;;;;10.36;100.00;100438.31;6185520;23;19916;-78
2023/11/19 05:23:03;;;;;;;;;;;;;;;10.37;100.00;100432.75;6185552;23;19912;-78
2023/11/19 05:25:28;;;;;;;;;;;;;;;10.26;100.00;100439.56;6185824;23;19913;-78
2023/11/19 05:27:54;;;;;;;;;;;;;;;10.29;100.00;100446.38;6187697;23;20004;-79
2023/11/19 05:30:19;;;;;;;;;;;;;;;10.37;100.00;100446.19;6187782;23;19917;-78
2023/11/19 05:32:45;;;;;;;;;;;;;;;10.32;100.00;100445.97;6185188;23;19966;-78
2023/11/19 05:35:10;;;;;;;;;;;;;;;10.38;100.00;100439.81;6186243;23;19979;-78
2023/11/19 05:37:36;;;;;;;;;;;;;;;10.30;100.00;100443.50;6185130;23;19916;-78
2023/11/19 05:40:03;;;;;;;;;;;;;;;10.29;100.00;100441.84;6184097;23;19998;-78
2023/11/19 05:42:28;;;;;;;;;;;;;;;10.27;100.00;100451.13;6186219;23;20035;-78
2023/11/19 05:44:54;;;;;;;;;;;;;;;10.28;100.00;100459.03;6183837;23;19947;-79
2023/11/19 05:47:19;;;;;;;;;;;;;;;10.19;100.00;100444.09;6183323;23;19909;-78
2023/11/19 05:49:44;;;;;;;;;;;;;;;10.25;100.00;100458.56;6184559;23;19912;-77
2023/11/19 05:52:10;;;;;;;;;;;;;;;10.19;100.00;100457.53;6189138;23;19912;-78
2023/11/19 05:54:37;;;;;;;;;;;;;;;10.18;100.00;100447.81;6192704;23;19917;-77
2023/11/19 05:57:04;;;;;;;;;;;;;;;10.22;100.00;100442.88;6190074;23;19967;-77
2023/11/19 05:59:29;;;;;;;;;;;;;;;10.20;100.00;100456.50;6188997;23;20241;-77
2023/11/19 06:01:55;;;;;;;;;;;;;;;10.20;100.00;100459.19;6187814;23;20344;-77
2023/11/19 06:04:20;;;;;;;;;;;;;;;10.14;100.00;100460.03;6187664;23;20292;-77
2023/11/19 06:06:46;;;;;;;;;;;;;;;10.16;100.00;100458.78;6186057;23;20230;-76
2023/11/19 06:09:12;;;;;;;;;;;;;;;10.12;100.00;100457.53;6187387;23;19947;-77
2023/11/19 06:11:40;;;;;;;;;;;;;;;10.22;100.00;100450.94;6187753;23;19955;-77
2023/11/19 06:14:06;;;;;;;;;;;;;;;10.26;100.00;100450.31;6185400;23;19995;-78
2023/11/19 06:16:31;;;;;;;;;;;;;;;10.25;100.00;100453.19;6186480;23;19954;-77
2023/11/19 06:19:06;;;;;;;;;;;;;;;10.19;100.00;100456.72;6186711;23;19913;-75
2023/11/19 06:21:31;;;;;;;;;;;;;;;10.24;100.00;100456.91;6185684;23;19913;-77
2023/11/19 06:23:56;;;;;;;;;;;;;;;10.27;100.00;100462.75;6186191;23;19936;-78
2023/11/19 06:26:22;;;;;;;;;;;;;;;10.24;100.00;100457.75;6185371;23;19991;-78
2023/11/19 06:28:47;;;;;;;;;;;;;;;10.26;100.00;100471.00;6184703;23;19940;-78
2023/11/19 06:31:15;;;;;;;;;;;;;;;10.23;100.00;100466.88;6185641;23;20018;-77
2023/11/19 06:33:41;;;;;;;;;;;;;;;10.21;100.00;100474.31;6186587;23;19940;-77
2023/11/19 06:36:07;;;;;;;;;;;;;;;10.25;100.00;100466.66;6184755;23;19924;-78
2023/11/19 06:38:33;;;;;;;;;;;;;;;10.23;100.00;100474.13;6186265;23;19967;-77
2023/11/19 06:40:58;;;;;;;;;;;;;;;10.21;100.00;100489.63;6185318;23;19943;-78
2023/11/19 06:46:06;;;;;;;;;;;;;;;10.12;100.00;100486.31;6184847;23;19920;-78
2023/11/19 06:48:32;;;;;;;;;;;;;;;10.11;100.00;100471.19;6185691;23;19912;-78
2023/11/19 06:50:57;;;;;;;;;;;;;;;10.17;100.00;100483.81;6185690;23;19912;-77
2023/11/19 06:53:44;;;;;;;;;;;;;;;10.18;100.00;100469.34;6187043;23;19912;-77
2023/11/19 06:56:34;;;;;;;;;;;;;;;10.21;100.00;100495.84;6215797;23;19998;-77
2023/11/19 06:59:29;;;;;;;;;;;;;;;10.34;100.00;100488.81;6215113;23;20218;-77
2023/11/19 07:02:04;;;;;;;;;;;;;;;10.29;100.00;100492.13;6196600;23;19912;-77
2023/11/19 07:04:30;;;;;;;;;;;;;;;10.23;100.00;100484.88;6213344;23;20311;-78
2023/11/19 07:06:56;;;;;;;;;;;;;;;10.31;100.00;100485.53;6214413;23;19916;-77
2023/11/19 07:09:22;;;;;;;;;;;;;;;10.20;100.00;100490.66;6212217;23;19975;-76
2023/11/19 07:11:50;;;;;;;;;;;;;;;10.11;100.00;100493.53;6217523;23;19998;-77
2023/11/19 07:14:16;;;;;;;;;;;;;;;10.20;100.00;100493.34;6215922;23;20320;-78
2023/11/19 07:16:41;;;;;;;;;;;;;;;10.21;100.00;100495.00;6214259;23;19912;-78
2023/11/19 07:19:06;;;;;;;;;;;;;;;10.17;100.00;100497.25;6215708;23;19920;-78
2023/11/19 07:21:39;;;;;;;;;;;;;;;10.15;100.00;100486.72;6191213;22;19927;-77
2023/11/19 07:24:09;;;;;;;;;;;;;;;10.18;100.00;100498.09;6184546;23;19916;-77
2023/11/19 07:26:37;;;;;;;;;;;;;;;10.13;100.00;100499.53;6186374;23;20241;-77
2023/11/19 07:29:02;;;;;;;;;;;;;;;10.23;100.00;100506.41;6185377;23;19913;-77
2023/11/19 07:31:28;;;;;;;;;;;;;;;10.18;100.00;100501.63;6184758;23;19917;-78
2023/11/19 07:33:53;;;;;;;;;;;;;;;10.24;100.00;100495.44;6187374;23;19971;-78
2023/11/19 07:36:19;;;;;;;;;;;;;;;10.15;100.00;100512.78;6185662;23;19913;-78
2023/11/19 07:38:45;;;;;;;;;;;;;;;10.20;100.00;100517.56;6183503;23;19912;-78
2023/11/19 07:41:12;;;;;;;;;;;;;;;10.28;100.00;100520.06;6186159;23;19995;-83
2023/11/19 07:43:44;;;;;;;;;;;;;;;10.29;100.00;100529.78;6185074;23;19912;-83
2023/11/19 07:46:32;;;;;;;;;;;;;;;10.18;100.00;100541.97;6152529;23;19927;-83
2023/11/19 07:48:57;;;;;;;;;;;;;;;10.20;100.00;100536.41;6185500;23;19966;-81
2023/11/19 07:51:30;;;;;;;;;;;;;;;10.26;100.00;100530.19;6185217;23;19916;-82
2023/11/19 07:54:28;;;;;;;;;;;;;;;10.21;100.00;100538.06;6184961;23;19917;-84
2023/11/19 07:57:03;;;;;;;;;;;;;;;10.26;100.00;100535.56;6186936;23;19987;-79
2023/11/19 07:59:34;;;;;;;;;;;;;;;10.26;100.00;100535.56;6185450;23;19987;-81
2023/11/19 08:02:36;;;;;;;;;;;;;;;10.28;100.00;100533.50;6186541;23;19959;-84
2023/11/19 08:05:02;;;;;;;;;;;;;;;10.34;100.00;100535.41;6187532;23;20333;-84
2023/11/19 08:08:01;;;;;;;;;;;;;;;10.37;100.00;100535.00;6186910;23;19913;-84
2023/11/19 08:10:29;;;;;;;;;;;;;;;10.27;100.00;100542.59;6186544;23;20380;-84
2023/11/19 08:12:57;;;;;;;;;;;;;;;10.32;100.00;100545.53;6183549;23;19987;-84
2023/11/19 08:15:51;;;;;;;;;;;;;;;10.30;100.00;100548.44;6183789;23;19916;-84
2023/11/19 08:21:32;;;;;;;;;;;;;;;10.31;100.00;100544.72;6202434;23;20007;-85
2023/11/19 08:24:09;;;;;;;;;;;;;;;10.22;100.00;100551.28;6215953;23;19931;-85
2023/11/19 08:26:49;;;;;;;;;;;;;;;10.30;100.00;100547.59;6216639;23;19952;-87
2023/11/19 08:29:57;;;;;;;;;;;;;;;10.28;100.00;100549.66;6181736;23;20305;-84
2023/11/19 08:32:51;;;;;;;;;;;;;;;10.28;100.00;100539.72;6215208;23;19939;-87
2023/11/19 08:35:51;;;;;;;;;;;;;;;;;;;;;
2023/11/19 08:38:42;;;;;;;;;;;;;;;10.50;100.00;100536.88;6236778;23;20017;-84
2023/11/19 08:41:33;;;;;;;;;;;;;;;10.55;100.00;100533.59;6244635;23;20352;-84
2023/11/19 08:43:58;;;;;;;;;;;;;;;10.64;100.00;100537.75;6244932;23;19941;-85
2023/11/19 08:46:29;;;;;;;;;;;;;;;10.79;100.00;100544.81;6244682;23;20285;-84
2023/11/19 08:49:05;;;;;;;;;;;;;;;10.65;100.00;100542.09;6244756;23;20283;-84
2023/11/19 08:51:33;;;;;;;;;;;;;;;10.77;100.00;100528.88;6212697;23;20343;-81
2023/11/19 08:53:58;;;;;;;;;;;;;;;10.79;100.00;100537.56;6243648;23;19912;-82
2023/11/19 08:59:12;;;;;;;;;;;;;;;10.86;100.00;100535.69;6170941;23;19920;-88
2023/11/19 09:01:41;;;;;;;;;;;;;;;10.89;100.00;100531.78;6183719;23;19935;-88
2023/11/19 09:06:59;;;;;;;;;;;;;;;11.02;100.00;100542.53;6180535;23;19927;-85
2023/11/19 09:16:06;;;;;;;;;;;;;;;;;;;;;
2023/11/19 09:21:38;;;;;;;;;;;;;;;10.84;100.00;100534.25;6155301;23;20368;-86
2023/11/19 09:24:03;;;;;;;;;;;;;;;10.80;100.00;100533.84;6164461;23;20056;-85
2023/11/19 09:26:50;;;;;;;;;;;;;;;10.82;100.00;100525.53;6167864;23;19913;-83
2023/11/19 09:32:30;;;;;;;;;;;;;;;10.77;100.00;100542.31;6170208;23;19943;-85
2023/11/19 09:34:59;;;;;;;;;;;;;;;10.87;100.00;100544.63;6211065;23;19923;-85
2023/11/19 09:40:48;;;;;;;;;;;;;;;10.81;100.00;100546.28;6214519;23;20008;-85
2023/11/19 09:43:51;;;;;;;;;;;;;;;10.89;100.00;100545.25;6215036;23;19912;-85
2023/11/19 09:46:34;;;;;;;;;;;;;;;10.84;100.00;100531.56;6214711;23;19990;-83
2023/11/19 09:48:59;;;;;;;;;;;;;;;11.01;100.00;100543.56;6215149;23;20010;-84
2023/11/19 09:51:52;;;;;;;;;;;;;;;10.95;100.00;100546.28;6213805;23;19912;-84
2023/11/19 09:54:30;;;;;;;;;;;;;;;10.95;100.00;100555.16;6215718;23;19912;-84
2023/11/19 10:00:08;;;;;;;;;;;;;;;11.00;100.00;100550.00;6217106;23;20249;-84
2023/11/19 10:02:48;;;;;;;;;;;;;;;10.85;100.00;100544.00;6214857;23;19919;-84
2023/11/19 10:05:33;;;;;;;;;;;;;;;10.82;100.00;100552.47;6213141;23;19969;-82
2023/11/19 10:07:59;;;;;;;;;;;;;;;10.84;100.00;100547.72;6211244;23;19923;-83
2023/11/19 10:10:33;;;;;;;;;;;;;;;11.02;100.00;100545.22;6214453;23;19915;-83
2023/11/19 10:13:05;;;;;;;;;;;;;;;11.31;100.00;100548.50;6212705;23;19916;-84
2023/11/19 10:15:31;;;;;;;;;;;;;;;11.34;100.00;100547.28;6212833;23;19955;-84
2023/11/19 10:18:00;;;;;;;;;;;;;;;11.37;99.62;100536.91;6186690;23;19916;-83
2023/11/19 10:20:37;;;;;;;;;;;;;;;11.51;99.39;100534.19;6208997;23;19974;-83
2023/11/19 10:23:03;;;;;;;;;;;;;;;11.60;98.25;100529.38;6211859;23;19966;-82
2023/11/19 10:25:42;;;;;;;;;;;;;;;11.93;96.55;100518.50;6213223;23;19912;-83
2023/11/19 10:28:08;;;;;;;;;;;;;;;11.85;96.10;100528.69;6207587;23;19920;-83
2023/11/19 10:30:34;;;;;;;;;;;;;;;11.87;95.87;100522.03;6212436;23;20284;-83
2023/11/19 10:33:19;;;;;;;;;;;;;;;12.06;95.50;100519.50;6213049;23;19912;-83
2023/11/19 10:35:54;;;;;;;;;;;;;;;12.31;92.86;100522.25;6211908;23;19930;-84
2023/11/19 10:38:20;;;;;;;;;;;;;;;12.32;92.47;100523.91;6182068;23;19924;-83
2023/11/19 10:40:45;;;;;;;;;;;;;;;12.25;92.70;100523.16;6181581;23;19920;-84
2023/11/19 10:43:14;;;;;;;;;;;;;;;12.32;92.84;100523.91;6182206;23;19987;-82
2023/11/19 10:45:39;;;;;;;;;;;;;;;12.35;92.30;100520.78;6179709;23;19912;-85
2023/11/19 10:48:06;;;;;;;;;;;;;;;12.16;92.69;100521.72;6182065;23;20336;-82
2023/11/19 10:50:32;;;;;;;;;;;;;;;11.91;93.56;100520.56;6182795;23;19912;-83
2023/11/19 10:53:00;;;;;;;;;;;;;;;11.83;94.75;100528.88;6182233;23;20360;-83
2023/11/19 10:55:27;;;;;;;;;;;;;;;12.00;93.30;100520.38;6183450;23;19939;-83
2023/11/19 10:57:52;;;;;;;;;;;;;;;11.81;94.04;100522.91;6182534;23;19912;-83
2023/11/19 11:00:18;;;;;;;;;;;;;;;11.91;94.08;100514.38;6155986;23;19951;-83
2023/11/19 11:02:44;;;;;;;;;;;;;;;11.88;93.74;100517.47;6156066;23;20295;-82
2023/11/19 11:05:10;;;;;;;;;;;;;;;11.83;94.70;100507.31;6156326;23;20206;-82
2023/11/19 11:07:35;;;;;;;;;;;;;;;11.89;94.73;100511.88;6156386;23;19916;-83
2023/11/19 11:10:01;;;;;;;;;;;;;;;12.01;93.61;100503.13;6155641;23;20244;-83
2023/11/19 11:12:27;;;;;;;;;;;;;;;12.14;92.97;100513.88;6183259;23;19916;-84
2023/11/19 11:14:53;;;;;;;;;;;;;;;11.97;93.06;100519.72;6159816;23;20311;-83
2023/11/19 11:17:18;;;;;;;;;;;;;;;11.99;94.04;100506.03;6160210;23;19912;-83
2023/11/19 11:19:43;;;;;;;;;;;;;;;11.86;92.86;100501.50;6187318;23;19916;-83
2023/11/19 11:22:12;;;;;;;;;;;;;;;12.02;92.98;100480.50;6181249;23;19900;-83
2023/11/19 11:24:49;;;;;;;;;;;;;;;12.13;92.07;100498.72;6161292;23;19917;-83
2023/11/19 11:27:26;;;;;;;;;;;;;;;12.40;91.42;100512.03;6185062;23;19919;-83
2023/11/19 11:29:59;;;;;;;;;;;;;;;12.33;90.87;100506.69;6185180;23;19932;-84
2023/11/19 11:32:33;;;;;;;;;;;;;;;12.76;87.33;100507.84;6161951;23;19916;-84
2023/11/19 11:35:33;;;;;;;;;;;;;;;13.02;86.50;100498.69;6189211;23;19908;-82
2023/11/19 11:38:11;;;;;;;;;;;;;;;13.00;86.31;100494.56;6156463;23;19928;-84
2023/11/19 11:41:02;;;;;;;;;;;;;;;12.75;87.55;100498.09;6133521;23;19920;-83
2023/11/19 11:43:46;;;;;;;;;;;;;;;12.46;88.44;100492.28;6154395;23;19948;-82
2023/11/19 11:49:32;;;;;;;;;;;;;;;12.40;89.05;100488.59;6153120;23;19919;-83
2023/11/19 11:55:04;;;;;;;;;;;;;;;12.74;87.89;100485.63;6154066;23;19924;-82
2023/11/19 11:57:50;;;;;;;;;;;;;;;12.86;86.25;100489.28;6152569;23;19912;-83
2023/11/19 12:03:41;;;;;;;;;;;;;;;;;;;;;
2023/11/19 12:06:35;;;;;;;;;;;;;;;13.56;82.22;100476.53;6128585;23;19971;-82
2023/11/19 12:12:09;;;;;;;;;;;;;;;13.70;81.74;100460.13;6152660;23;19967;-82
2023/11/19 12:14:56;;;;;;;;;;;;;;;13.53;81.11;100465.34;6153032;23;19917;-83
2023/11/19 12:17:55;;;;;;;;;;;;;;;13.33;83.43;100459.06;6078289;23;19916;-82
2023/11/19 12:21:00;;;;;;;;;;;;;;;13.08;83.38;100461.81;6158097;23;19917;-82
2023/11/19 12:23:54;;;;;;;;;;;;;;;;;;;;;
2023/11/19 12:38:39;;;;;;;;;;;;;;;11.49;100.00;100441.91;6214750;23;19919;-82
2023/11/19 12:41:38;;;;;;;;;;;;;;;11.31;100.00;100445.31;6214659;23;19939;-83
2023/11/19 12:44:34;;;;;;;;;;;;;;;11.25;100.00;100449.69;6214088;23;19919;-83
2023/11/19 12:50:33;;;;;;;;;;;;;;;11.38;100.00;100438.03;6212842;23;20002;-83
2023/11/19 12:52:58;;;;;;;;;;;;;;;11.19;100.00;100428.97;6215333;23;19912;-83
2023/11/19 12:55:32;;;;;;;;;;;;;;;11.47;100.00;100436.75;6214610;23;19955;-83
2023/11/19 12:58:10;;;;;;;;;;;;;;;11.76;100.00;100439.94;6216575;23;19916;-84
2023/11/19 13:00:36;;;;;;;;;;;;;;;11.64;100.00;100455.97;6217998;23;19912;-83
2023/11/19 13:03:01;;;;;;;;;;;;;;;11.53;100.00;100462.00;6203216;23;19916;-83
2023/11/19 13:08:35;;;;;;;;;;;;;;;11.81;98.46;100467.09;6218464;23;19962;-83
2023/11/19 13:11:01;;;;;;;;;;;;;;;12.01;96.86;100458.09;6211442;23;20276;-84
2023/11/19 13:13:47;;;;;;;;;;;;;;;12.04;97.63;100467.63;6212716;23;19943;-83
2023/11/19 13:18:47;;;;;;;;;;;;;;;13.96;87.65;100464.38;6206630;22;19920;-84
2023/11/19 13:21:13;;;;;;;;;;;;;;;14.02;84.59;100449.94;6212861;23;19912;-83
2023/11/19 13:23:53;;;;;;;;;;;;;;;13.21;86.05;100454.66;6193598;23;19912;-83
2023/11/19 13:26:30;;;;;;;;;;;;;;;13.00;88.06;100460.25;6211445;23;20057;-82
2023/11/19 13:29:01;;;;;;;;;;;;;;;12.66;89.03;100453.50;6211483;23;19919;-83
2023/11/19 13:34:34;;;;;;;;;;;;;;;12.18;92.26;100452.19;6224562;23;19964;-83
2023/11/19 13:37:14;;;;;;;;;;;;;;;12.12;92.67;100445.78;6216403;23;19911;-82
2023/11/19 13:39:45;;;;;;;;;;;;;;;12.23;93.16;100453.19;6216288;23;20341;-83
2023/11/19 13:42:32;;;;;;;;;;;;;;;12.01;93.10;100438.38;6212153;23;19943;-82
2023/11/19 13:45:25;;;;;;;;;;;;;;;11.90;94.30;100450.66;6211158;23;19912;-82
2023/11/19 13:48:02;;;;;;;;;;;;;;;11.85;93.15;100445.91;6211974;23;19920;-82
2023/11/19 13:50:32;;;;;;;;;;;;;;;11.91;94.20;100450.44;6210101;22;19968;-82
2023/11/19 13:55:41;;;;;;;;;;;;;;;11.88;94.74;100434.69;6211703;23;19919;-83
2023/11/19 14:00:37;;;;;;;;;;;;;;;11.78;96.96;100442.44;6211768;23;20330;-82
2023/11/19 14:03:41;;;;;;;;;;;;;;;11.87;94.60;100440.31;6213610;23;19962;-83
2023/11/19 14:06:34;;;;;;;;;;;;;;;11.81;95.90;100433.91;6212799;23;19958;-82
2023/11/19 14:08:59;;;;;;;;;;;;;;;11.72;95.79;100435.19;6213378;23;19911;-83
2023/11/19 14:11:49;;;;;;;;;;;;;;;11.61;95.73;100434.81;6210236;23;20331;-83
2023/11/19 14:14:35;;;;;;;;;;;;;;;11.60;96.14;100430.47;6211567;23;19911;-83
2023/11/19 14:17:35;;;;;;;;;;;;;;;11.70;95.14;100413.00;6212390;23;19916;-84
2023/11/19 14:29:10;;;;;;;;;;;;;;;10.97;100.00;100434.59;6090371;23;19919;-85
2023/11/19 14:31:36;;;;;;;;;;;;;;;10.78;100.00;100447.06;6090920;23;19950;-86
2023/11/19 14:34:04;;;;;;;;;;;;;;;10.59;100.00;100437.97;6117192;23;20203;-88
2023/11/19 14:36:29;;;;;;;;;;;;;;;10.53;100.00;100436.09;6211998;23;19912;-86
2023/11/19 14:38:55;;;;;;;;;;;;;;;10.46;100.00;100441.47;6211434;23;19912;-85
2023/11/19 14:41:35;;;;;;;;;;;;;;;10.43;100.00;100450.78;6212728;23;19917;-86
2023/11/19 14:44:35;;;;;;;;;;;;;;;10.53;100.00;100436.09;6211540;23;19942;-85
2023/11/19 14:47:03;;;;;;;;;;;;;;;10.56;100.00;100436.50;6212504;23;19946;-84